HAZ3624 ZUCK-ZGGG
Flight info
| Callsign | HAZ3624 |
|---|---|
| Flight time | N/A |
| Altitude | 38100 |
| Route | VILUS1Z VILUS W180 LIDMA W182 LAGEX G586 SJG B330 GYA GYA9 |
| Aircraft | B77W/H-SDE1E2E3FGHIJ2J3J4J5M1RWXY/LB1D1 |
Departure
| Time | 2026-04-21 03:14 |
|---|---|
| Airport | Chongqing Jiangbei International Airport (ZUCK) |
Arrival
| Time | N/A |
|---|---|
| Airport | Guangzhou Baiyun International Airport (ZGGG) |
| Time | Latitude | Longitude | Altitude | Speed | Heading |
|---|---|---|---|---|---|
| 2026-04-21 03:00 | 29.71699 | 106.64957 | 1377 ft | 0 kts | 101° |
| 2026-04-21 03:05 | 29.71699 | 106.64955 | 1377 ft | 1 kts | 101° |
| 2026-04-21 03:05 | 29.71702 | 106.64938 | 1377 ft | 2 kts | 101° |
| 2026-04-21 03:05 | 29.71704 | 106.64927 | 1377 ft | 2 kts | 100° |
| 2026-04-21 03:06 | 29.71705 | 106.64910 | 1377 ft | 2 kts | 80° |
| 2026-04-21 03:06 | 29.71700 | 106.64893 | 1377 ft | 2 kts | 61° |
| 2026-04-21 03:06 | 29.71692 | 106.64880 | 1377 ft | 0 kts | 45° |
| 2026-04-21 03:07 | 29.71688 | 106.64876 | 1377 ft | 1 kts | 37° |
| 2026-04-21 03:07 | 29.71680 | 106.64870 | 1377 ft | 2 kts | 28° |
| 2026-04-21 03:07 | 29.71668 | 106.64864 | 1377 ft | 1 kts | 14° |
| 2026-04-21 03:07 | 29.71667 | 106.64864 | 1377 ft | 0 kts | 14° |
| 2026-04-21 03:09 | 29.71668 | 106.64864 | 1377 ft | 1 kts | 14° |
| 2026-04-21 03:09 | 29.71705 | 106.64874 | 1377 ft | 11 kts | 14° |
| 2026-04-21 03:09 | 29.71806 | 106.64908 | 1377 ft | 15 kts | 15° |
| 2026-04-21 03:10 | 29.71896 | 106.64876 | 1377 ft | 13 kts | 338° |
| 2026-04-21 03:10 | 29.72004 | 106.64887 | 1377 ft | 18 kts | 17° |
| 2026-04-21 03:10 | 29.72137 | 106.64934 | 1377 ft | 20 kts | 17° |
| 2026-04-21 03:10 | 29.72280 | 106.64983 | 1377 ft | 23 kts | 17° |
| 2026-04-21 03:11 | 29.72456 | 106.65044 | 1377 ft | 27 kts | 17° |
| 2026-04-21 03:11 | 29.72634 | 106.65105 | 1377 ft | 26 kts | 17° |
| 2026-04-21 03:11 | 29.72811 | 106.65166 | 1377 ft | 26 kts | 16° |
| 2026-04-21 03:11 | 29.72988 | 106.65229 | 1377 ft | 26 kts | 17° |
| 2026-04-21 03:12 | 29.73163 | 106.65288 | 1377 ft | 25 kts | 16° |
| 2026-04-21 03:12 | 29.73327 | 106.65344 | 1377 ft | 24 kts | 18° |
| 2026-04-21 03:12 | 29.73476 | 106.65397 | 1377 ft | 19 kts | 347° |
| 2026-04-21 03:12 | 29.73533 | 106.65270 | 1377 ft | 17 kts | 287° |
| 2026-04-21 03:13 | 29.73552 | 106.65144 | 1377 ft | 14 kts | 240° |
| 2026-04-21 03:13 | 29.73461 | 106.65100 | 1377 ft | 13 kts | 195° |
| 2026-04-21 03:13 | 29.73251 | 106.65028 | 1377 ft | 70 kts | 197° |
| 2026-04-21 03:13 | 29.72443 | 106.64750 | 1377 ft | 167 kts | 197° |
| 2026-04-21 03:14 | 29.71112 | 106.64294 | 1786 ft | 221 kts | 199° |
| 2026-04-21 03:14 | 29.69686 | 106.63792 | 3274 ft | 215 kts | 198° |
| 2026-04-21 03:14 | 29.68309 | 106.63242 | 4333 ft | 213 kts | 198° |
| 2026-04-21 03:14 | 29.66846 | 106.62737 | 4964 ft | 230 kts | 195° |
| 2026-04-21 03:15 | 29.65264 | 106.62227 | 5691 ft | 246 kts | 196° |
| 2026-04-21 03:15 | 29.63571 | 106.61691 | 6497 ft | 259 kts | 195° |
| 2026-04-21 03:15 | 29.61798 | 106.61089 | 7360 ft | 270 kts | 197° |
| 2026-04-21 03:15 | 29.60006 | 106.60467 | 8514 ft | 270 kts | 198° |
| 2026-04-21 03:16 | 29.58222 | 106.59849 | 9580 ft | 271 kts | 199° |
| 2026-04-21 03:16 | 29.56425 | 106.59220 | 10530 ft | 277 kts | 200° |
| 2026-04-21 03:16 | 29.54528 | 106.58504 | 11135 ft | 296 kts | 200° |
| 2026-04-21 03:16 | 29.52535 | 106.57751 | 11719 ft | 315 kts | 200° |
| 2026-04-21 03:17 | 29.50356 | 106.56973 | 12338 ft | 333 kts | 197° |
| 2026-04-21 03:17 | 29.48023 | 106.56501 | 12944 ft | 353 kts | 188° |
| 2026-04-21 03:17 | 29.45488 | 106.56461 | 13505 ft | 374 kts | 178° |
| 2026-04-21 03:17 | 29.42850 | 106.56943 | 14077 ft | 394 kts | 168° |
| 2026-04-21 03:18 | 29.40190 | 106.58031 | 14729 ft | 411 kts | 157° |
| 2026-04-21 03:18 | 29.37706 | 106.59731 | 15525 ft | 422 kts | 146° |
| 2026-04-21 03:18 | 29.35535 | 106.61977 | 16319 ft | 431 kts | 134° |
| 2026-04-21 03:18 | 29.33579 | 106.64616 | 17138 ft | 436 kts | 131° |
| 2026-04-21 03:19 | 29.31612 | 106.67303 | 17954 ft | 441 kts | 132° |
| 2026-04-21 03:19 | 29.29613 | 106.69983 | 18717 ft | 447 kts | 132° |
| 2026-04-21 03:19 | 29.27556 | 106.72702 | 19484 ft | 453 kts | 133° |
| 2026-04-21 03:19 | 29.25491 | 106.75404 | 20239 ft | 458 kts | 133° |
| 2026-04-21 03:20 | 29.23365 | 106.78164 | 20986 ft | 464 kts | 133° |
| 2026-04-21 03:20 | 29.21222 | 106.80932 | 21692 ft | 470 kts | 133° |
| 2026-04-21 03:20 | 29.19036 | 106.83745 | 22421 ft | 474 kts | 134° |
| 2026-04-21 03:20 | 29.16825 | 106.86582 | 23160 ft | 479 kts | 134° |
| 2026-04-21 03:21 | 29.14522 | 106.89317 | 23855 ft | 481 kts | 141° |
| 2026-04-21 03:21 | 29.11865 | 106.91658 | 24496 ft | 484 kts | 150° |
| 2026-04-21 03:21 | 29.08891 | 106.93507 | 25142 ft | 486 kts | 159° |
| 2026-04-21 03:21 | 29.05728 | 106.94802 | 25805 ft | 487 kts | 168° |
| 2026-04-21 03:22 | 29.02407 | 106.95534 | 26492 ft | 487 kts | 177° |
| 2026-04-21 03:22 | 28.99027 | 106.95699 | 27161 ft | 488 kts | 184° |
| 2026-04-21 03:22 | 28.95604 | 106.95630 | 27878 ft | 491 kts | 185° |
| 2026-04-21 03:22 | 28.92148 | 106.95551 | 28560 ft | 496 kts | 185° |
| 2026-04-21 03:23 | 28.88669 | 106.95481 | 29175 ft | 501 kts | 185° |
| 2026-04-21 03:23 | 28.85178 | 106.95419 | 29955 ft | 503 kts | 185° |
| 2026-04-21 03:23 | 28.81679 | 106.95364 | 30876 ft | 501 kts | 186° |
| 2026-04-21 03:23 | 28.78203 | 106.95312 | 31777 ft | 499 kts | 186° |
| 2026-04-21 03:24 | 28.74761 | 106.95264 | 32560 ft | 498 kts | 187° |
| 2026-04-21 03:24 | 28.71304 | 106.95217 | 33186 ft | 499 kts | 187° |
| 2026-04-21 03:24 | 28.67814 | 106.95171 | 33823 ft | 499 kts | 188° |
| 2026-04-21 03:24 | 28.64386 | 106.95127 | 34479 ft | 498 kts | 188° |
| 2026-04-21 03:25 | 28.61039 | 106.95085 | 35091 ft | 497 kts | 188° |
| 2026-04-21 03:25 | 28.57531 | 106.95042 | 35780 ft | 495 kts | 188° |
| 2026-04-21 03:25 | 28.54181 | 106.95003 | 36406 ft | 492 kts | 189° |
| 2026-04-21 03:25 | 28.50756 | 106.94961 | 36869 ft | 493 kts | 189° |
| 2026-04-21 03:26 | 28.47253 | 106.94915 | 36974 ft | 499 kts | 189° |
| 2026-04-21 03:26 | 28.43772 | 106.94872 | 36981 ft | 501 kts | 189° |
| 2026-04-21 03:26 | 28.36811 | 106.94791 | 36979 ft | 498 kts | 189° |
| 2026-04-21 03:27 | 28.30004 | 106.94710 | 36972 ft | 497 kts | 189° |
| 2026-04-21 03:27 | 28.23009 | 106.94629 | 36966 ft | 501 kts | 188° |
| 2026-04-21 03:28 | 28.16015 | 106.94999 | 36963 ft | 499 kts | 186° |
| 2026-04-21 03:28 | 28.08989 | 106.95428 | 36959 ft | 505 kts | 186° |
| 2026-04-21 03:29 | 28.02025 | 106.95832 | 36951 ft | 501 kts | 186° |
| 2026-04-21 03:29 | 27.95027 | 106.96211 | 36981 ft | 500 kts | 186° |
| 2026-04-21 03:30 | 27.88198 | 106.96577 | 37045 ft | 504 kts | 186° |
| 2026-04-21 03:30 | 27.81209 | 106.96949 | 37048 ft | 502 kts | 186° |
| 2026-04-21 03:31 | 27.74173 | 106.97321 | 37046 ft | 502 kts | 186° |
| 2026-04-21 03:31 | 27.67154 | 106.97691 | 37045 ft | 501 kts | 186° |
| 2026-04-21 03:32 | 27.60184 | 106.98057 | 37034 ft | 501 kts | 186° |
| 2026-04-21 03:32 | 27.53151 | 106.98425 | 37033 ft | 503 kts | 186° |
| 2026-04-21 03:33 | 27.46147 | 106.98794 | 37031 ft | 503 kts | 186° |
| 2026-04-21 03:33 | 27.39103 | 106.99173 | 37033 ft | 505 kts | 186° |
| 2026-04-21 03:34 | 27.32117 | 106.99554 | 37029 ft | 501 kts | 186° |
| 2026-04-21 03:34 | 27.25071 | 106.99931 | 37031 ft | 506 kts | 186° |
| 2026-04-21 03:35 | 27.18068 | 107.00310 | 37038 ft | 505 kts | 186° |
| 2026-04-21 03:35 | 27.11026 | 107.00691 | 37049 ft | 502 kts | 186° |
| 2026-04-21 03:36 | 27.03993 | 107.01869 | 37044 ft | 520 kts | 170° |
| 2026-04-21 03:36 | 27.00588 | 107.03311 | 37061 ft | 532 kts | 161° |
| 2026-04-21 03:36 | 26.97316 | 107.05325 | 37055 ft | 540 kts | 152° |
| 2026-04-21 03:37 | 26.91522 | 107.10962 | 37048 ft | 552 kts | 133° |
| 2026-04-21 03:37 | 26.87387 | 107.18202 | 37045 ft | 559 kts | 114° |
| 2026-04-21 03:38 | 26.85208 | 107.26519 | 37049 ft | 554 kts | 98° |
| 2026-04-21 03:38 | 26.83799 | 107.35069 | 37054 ft | 556 kts | 100° |
| 2026-04-21 03:39 | 26.82108 | 107.43461 | 37051 ft | 557 kts | 102° |
| 2026-04-21 03:39 | 26.80211 | 107.51893 | 37048 ft | 556 kts | 103° |
| 2026-04-21 03:40 | 26.78228 | 107.60199 | 37037 ft | 557 kts | 104° |
| 2026-04-21 03:40 | 26.76156 | 107.68557 | 37020 ft | 556 kts | 105° |
| 2026-04-21 03:41 | 26.74050 | 107.76862 | 37021 ft | 554 kts | 105° |
| 2026-04-21 03:41 | 26.71909 | 107.85204 | 37016 ft | 556 kts | 105° |
| 2026-04-21 03:42 | 26.69770 | 107.93469 | 37020 ft | 553 kts | 105° |
| 2026-04-21 03:42 | 26.67615 | 108.01744 | 37022 ft | 555 kts | 104° |
| 2026-04-21 03:43 | 26.65451 | 108.10020 | 37024 ft | 555 kts | 105° |
| 2026-04-21 03:43 | 26.63249 | 108.18413 | 37028 ft | 575 kts | 105° |
| 2026-04-21 03:44 | 26.60964 | 108.27091 | 37052 ft | 582 kts | 105° |
| 2026-04-21 03:44 | 26.58690 | 108.35699 | 37042 ft | 580 kts | 105° |
| 2026-04-21 03:45 | 26.56579 | 108.44368 | 37036 ft | 579 kts | 102° |
| 2026-04-21 03:45 | 26.54591 | 108.53042 | 37032 ft | 579 kts | 103° |
| 2026-04-21 03:46 | 26.52568 | 108.61796 | 37034 ft | 578 kts | 103° |
| 2026-04-21 03:46 | 26.50555 | 108.70454 | 37020 ft | 578 kts | 103° |
| 2026-04-21 03:47 | 26.48541 | 108.79075 | 37020 ft | 577 kts | 103° |
| 2026-04-21 03:47 | 26.46491 | 108.87818 | 37024 ft | 578 kts | 103° |
| 2026-04-21 03:48 | 26.44201 | 108.96186 | 37024 ft | 578 kts | 113° |
| 2026-04-21 03:48 | 26.40165 | 109.03886 | 37024 ft | 574 kts | 130° |
| 2026-04-21 03:49 | 26.34519 | 109.10184 | 37036 ft | 571 kts | 143° |
| 2026-04-21 03:49 | 26.28328 | 109.15790 | 37032 ft | 571 kts | 144° |
| 2026-04-21 03:50 | 26.22104 | 109.21382 | 37036 ft | 570 kts | 144° |
| 2026-04-21 03:50 | 26.15949 | 109.26897 | 37041 ft | 570 kts | 144° |
| 2026-04-21 03:51 | 26.09772 | 109.32423 | 37040 ft | 572 kts | 144° |
| 2026-04-21 03:51 | 26.03562 | 109.37968 | 37037 ft | 568 kts | 143° |
| 2026-04-21 03:52 | 25.97362 | 109.43494 | 37036 ft | 570 kts | 143° |
| 2026-04-21 03:52 | 25.91212 | 109.48970 | 37032 ft | 568 kts | 144° |
| 2026-04-21 03:53 | 25.85050 | 109.54447 | 37021 ft | 568 kts | 144° |
| 2026-04-21 03:53 | 25.78855 | 109.59946 | 37020 ft | 568 kts | 143° |
| 2026-04-21 03:54 | 25.72876 | 109.65782 | 37027 ft | 570 kts | 138° |
| 2026-04-21 03:54 | 25.67172 | 109.71935 | 37032 ft | 570 kts | 138° |
| 2026-04-21 03:55 | 25.61458 | 109.78050 | 37041 ft | 568 kts | 138° |
| 2026-04-21 03:55 | 25.55752 | 109.84113 | 37043 ft | 571 kts | 138° |
| 2026-04-21 03:56 | 25.50021 | 109.90179 | 37043 ft | 570 kts | 138° |
| 2026-04-21 03:56 | 25.44270 | 109.96246 | 37038 ft | 569 kts | 139° |
| 2026-04-21 03:57 | 25.38498 | 110.02322 | 37030 ft | 568 kts | 139° |